Flight Track Log - Related Links

Times and Time Zones

All times are in EST time to prevent confusion due to time zone crossing. See the FIN666 flight status page for this flight to view local times or setup timezone preferences in your user account.

Time Position Orientation Groundspeed Altitude Reporting Facility
EST Latitude Longitude Course Direction KTS MPH feet Rate Location/Type
Thu 07:23:00 AM 55.8272 13.0881 49° Northeast  Level Estimated
Thu 07:24:00 AM 55.8966 13.2332 49° Northeast  Level Estimated
Thu 07:25:00 AM 55.9658 13.3788 50° Northeast  Level Estimated
Thu 07:26:00 AM 56.0349 13.5249 50° Northeast  Level Estimated
Thu 07:27:00 AM 56.1047 13.6735 50° Northeast  Level Estimated
Thu 07:28:00 AM 56.1743 13.8227 50° Northeast  Level Estimated
Thu 07:29:00 AM 56.2438 13.9724 50° Northeast  Level Estimated
Thu 07:30:00 AM 56.3131 14.1227 50° Northeast  Level Estimated
Thu 07:31:00 AM 56.3822 14.2735 50° Northeast  Level Estimated
Thu 07:32:00 AM 56.4511 14.4248 50° Northeast  Level Estimated
Thu 07:33:00 AM 56.5198 14.5767 51° Northeast  Level Estimated
Thu 07:34:00 AM 56.5883 14.7292 51° Northeast  Level Estimated
Thu 07:35:00 AM 56.6567 14.8822 51° Northeast  Level Estimated
Thu 07:36:00 AM 56.7249 15.0357 51° Northeast  Level Estimated
Thu 07:37:00 AM 56.7929 15.1898 51° Northeast  Level Estimated
Thu 07:38:00 AM 56.8606 15.3445 51° Northeast  Level Estimated
Thu 07:39:00 AM 56.9282 15.4998 51° Northeast  Level Estimated
Thu 07:40:00 AM 56.9957 15.6555 52° Northeast  Level Estimated
Thu 07:41:00 AM 57.0629 15.8119 52° Northeast  Level Estimated
Thu 07:42:00 AM 57.1299 15.9688 52° Northeast  Level Estimated
Thu 07:43:00 AM 57.1967 16.1263 52° Northeast  Level Estimated
Thu 07:44:00 AM 57.2633 16.2844 52° Northeast  Level Estimated
Thu 07:45:00 AM 57.3297 16.4430 52° Northeast  Level Estimated
Thu 07:46:00 AM 57.3960 16.6022 52° Northeast  Level Estimated
Thu 07:47:00 AM 57.4620 16.7620 52° Northeast  Level Estimated
Thu 07:48:00 AM 57.5269 16.9202 53° Northeast  Level Estimated
Thu 07:49:00 AM 57.5916 17.0790 53° Northeast  Level Estimated
Thu 07:50:00 AM 57.6562 17.2384 53° Northeast  Level Estimated
Thu 07:51:00 AM 57.7205 17.3983 53° Northeast  Level Estimated
Thu 07:52:00 AM 57.7847 17.5588 53° Northeast  Level Estimated
Thu 07:53:00 AM 57.8486 17.7198 53° Northeast  Level Estimated
Thu 07:54:00 AM 57.9123 17.8815 53° Northeast  Level Estimated
Thu 07:55:00 AM 57.9758 18.0437 54° Northeast  Level Estimated
Thu 07:56:00 AM 58.0392 18.2064 54° Northeast  Level Estimated
Thu 07:57:00 AM 58.1023 18.3698 54° Northeast  Level Estimated
Thu 07:58:00 AM 58.1652 18.5337 54° Northeast  Level Estimated
Thu 07:59:00 AM 58.2279 18.6982 54° Northeast  Level Estimated
Thu 08:00:00 AM 58.2903 18.8633 54° Northeast  Level Estimated
Thu 08:01:00 AM 58.3526 19.0290 54° Northeast  Level Estimated
Thu 08:02:00 AM 58.4146 19.1953 54° Northeast  Level Estimated
Thu 08:03:00 AM 58.4765 19.3621 55° Northeast  Level Estimated
Thu 08:04:00 AM 58.5381 19.5296 55° Northeast  Level Estimated
Thu 08:05:00 AM 58.5995 19.6976 55° Northeast  Level Estimated
Thu 08:06:00 AM 58.6606 19.8662 55° Northeast  Level Estimated
Thu 08:07:00 AM 58.7216 20.0354 55° Northeast  Level Estimated
Thu 08:08:00 AM 58.7823 20.2052 55° Northeast  Level Estimated
Thu 08:09:00 AM 58.8428 20.3756 55° Northeast  Level Estimated
Thu 08:10:00 AM 58.9031 20.5465 56° Northeast  Level Estimated
Thu 08:11:00 AM 58.9632 20.7181 56° Northeast  Level Estimated
Thu 08:12:00 AM 59.0230 20.8903 56° Northeast  Level Estimated
Thu 08:13:00 AM 59.0826 21.0631 56° Northeast  Level Estimated
Thu 08:14:00 AM 59.1420 21.2365 56° Northeast  Level Estimated
Thu 08:15:00 AM 59.2011 21.4104 56° Northeast  Level Estimated
Thu 08:16:00 AM 59.2600 21.5850 57° Northeast  Level Estimated
Thu 08:17:00 AM 59.3187 21.7602 57° Northeast  Level Estimated
Thu 08:18:00 AM 59.3771 21.9360 57° Northeast  Level Estimated
Thu 08:19:00 AM 59.4353 22.1124 57° Northeast  Level Estimated
Thu 08:20:00 AM 59.4933 22.2894 57° Northeast  Level Estimated
Thu 08:21:00 AM 59.5510 22.4670 57° Northeast  Level Estimated
Thu 08:22:00 AM 59.6085 22.6452 57° Northeast  Level Estimated
Thu 08:23:00 AM 59.6657 22.8240 58° Northeast  Level Estimated
Thu 08:24:00 AM 59.7227 23.0035 58° Northeast  Level Estimated
Thu 08:25:00 AM 59.7794 23.1835 58° Northeast  Level Estimated
Thu 08:26:00 AM 59.8359 23.3642 58° Northeast  Level Estimated
Thu 08:27:00 AM 59.8922 23.5455 58° Northeast  Level Estimated
Thu 08:28:00 AM 59.9482 23.7274 58° Northeast  Level Estimated
Thu 08:29:00 AM 60.0039 23.9098 59° Northeast  Level Estimated
Thu 08:30:00 AM 60.0594 24.0930 59° Northeast  Level Estimated
Thu 08:31:00 AM 60.1146 24.2767 59° Northeast  Level Estimated
Thu 08:32:00 AM 60.1696 24.4611 59° Northeast  Level Estimated
Thu 08:33:00 AM 60.2243 24.6460 59° Northeast  Level Estimated
Thu 08:34:00 AM 60.2788 24.8316 59° Northeast  Level Estimated
Thu 08:35:00 AM 60.3172 24.9633 59° Northeast  Level Estimated
Thu 08:36:00 AM 60.3172 24.9633 37° Northeast  Level Estimated
Thu 08:37:00 AM 60.3172 24.9633 37° Northeast  Level Estimated
Thu 08:38:00 AM 60.3172 24.9633 37° Northeast  Level Estimated
Thu 08:39:00 AM 60.3172 24.9633 37° Northeast  Level Estimated
Thu 08:40:00 AM 60.3172 24.9633 37° Northeast  Level Estimated
Thu 08:41:00 AM 60.3172 24.9633 37° Northeast  Level Estimated
Thu 08:42:00 AM 60.3172 24.9633 37° Northeast  Level Estimated
Thu 08:43:00 AM 60.3172 24.9633 37° Northeast  Level Estimated
Thu 08:44:00 AM 60.3172 24.9633 37° Northeast  Level Estimated

Login

Don't have an account? Register now (free) for customized features, flight alerts, and more!